Terminal Aerodrome Forecast
Issued by NWS

Home | Current Version | Previous Version | Text Only | Print | Product List | Glossary On
Versions: 1 2 3 4 5 6 7 8 9 10 11 12 13 14 15 16 17 18 19 20 21 22 23 24 25 26 27
606
FTUS43 KLSX 201730
TAFSUS
TAF
KSUS 201730Z 2018/2118 20015G29KT P6SM SHRA VCTS OVC020CB
     FM202000 20013G23KT 5SM SHRA VCTS OVC020CB
     FM202200 24007KT 2SM SHRA VCTS OVC015CB
     FM210000 32009KT 3SM SHRA OVC008
     FM210900 34011G18KT P6SM VCSH OVC008
     FM211200 35010KT P6SM BKN015
     FM211500 36009KT P6SM BKN250=

USA.gov is the U.S. government's official web portal to all federal, state and local government web resources and services.